Terminal Aerodrome Forecast
Issued by NWS North Platte, NE

Home | Current Version | Previous Version | Text Only | Print | Product List | Glossary Off
Versions: 1 2 3 4 5 6 7 8 9 10 11 12 13 14 15

000
FTUS43 KLBF 132320
TAFVTN
TAF
KVTN 132320Z 1400/1424 33013G24KT P6SM SCT250
     FM140600 32009KT P6SM BKN060
     FM141200 30008KT P6SM -SN OVC025
     FM141600 31017G28KT P6SM -RASN OVC020=

USA.gov is the U.S. government's official web portal to all federal, state and local government web resources and services.